Aeroporto :
LOGIN :

Iscrizione | Disclaimer

   EN    FR    IT 

 










Sommario :    VFR   VFR Marginale   IFR   IFR Intensivo   IFR Molto Intensivo
Visibilità : 
Base nubi : 
>= 8 km
>= 3000ft
5 / 8 km
1000 / 3000 ft
1500m / 5 km
500 / 1000 ft
800 / 1500m
200 / 500 ft
< 800m
< 200 ft
Simboli :   Temporali  Nebbia  Neve Forte  Precipitazioni Forti  Vento > 20 kt
SIGMETs :   Varie  Temporali  Ghiacco  Turbolenza  Onda orograficha  Ceneri Vulcaniche






- Altitudine del aeroporto : 17 ft
- Codice IATA : CPH


EKCH - København - Kastrup (Copenhagen)

ULTIMO METAR :
  • 110520Z AUTO 20020KT 9999 OVC009/// 05/03 Q1006 TEMPO 19025G35KT 3000 RADZ BKN015

METARs OBSOLETI :
  • 110450Z AUTO 20022KT 9999 OVC010/// 04/03 Q1006 TEMPO 19025G35KT 3000 RADZ BKN015
  • 110420Z AUTO 20020G31KT 9999 OVC011/// 04/02 Q1007 TEMPO 19025G35KT 3000 RADZ BKN015
  • 110350Z AUTO 20021KT 9999 -RA OVC014/// 04/02 Q1007 TEMPO 19030G40KT
  • 110320Z AUTO 20024KT 7000 -RA OVC019/// 04/02 Q1007 TEMPO 19030G40KT
  • 110250Z AUTO 20022G34KT 9999 -RA OVC027/// 05/01 Q1008 TEMPO 19030G40KT

TAF TAF EKCH
Valido dal 11 a 06 ore il 12 a 06 ore UTC


110501Z 1106/1206 20020KT 9999 BKN015
TEMPO 1106/1109 20020G30KT
BECMG 1106/1109 RADZ BKN012
TEMPO 1109/1204 4000 BR BKN008
BECMG 1114/1116 20010KT



MetMap, La meteo Aeronautica in un colpo d'occhio ! - Copyright ORBIFLY Dicembre 2007 - Disclaimer

ORBIFLY MET'MAP TEAM :

Programmazione e sviluppo : Alexandra Zaïnal
Concezione : Baudouin d'Aumeries
Aiuto per la programmazione : Marc-Olivier Méhu
Supporto tecnico e logistico : Manuel Goepfert
Aiuto per la traduzione : Arnaldo La Scala

Contatto : metmap@orbifly.com




FONTI E CREDITI :

   NOAA